Time;durP1;ratioP1;P1;durP2;ratioP2;P2;SDS_P1;SDS_P2;PMS_P1;PMS_P2;Temp;Humidity;BMP_temperature;BMP_pressure;BME280_temperature;BME280_humidity;BME280_pressure;Samples;Min_cycle;Max_cycle;Signal;HPM_P1;HPM_P2
2023/12/14 00:01:46;;;;;;;9.80;7.18;;;;;10.00;97462.00;;;;5032060;28;20041;-61
2023/12/14 00:04:12;;;;;;;9.68;7.15;;;;;10.00;97468.00;;;;5031404;28;20041;-62
2023/12/14 00:06:39;;;;;;;11.75;7.38;;;;;10.10;97463.00;;;;5030734;28;20041;-61
2023/12/14 00:09:08;;;;;;;10.90;7.70;;;;;10.10;97467.00;;;;5032172;28;20056;-61
2023/12/14 00:11:38;;;;;;;11.63;8.55;;;;;10.10;97476.00;;;;5031970;28;20053;-63
2023/12/14 00:14:05;;;;;;;13.65;7.35;;;;;10.10;97480.00;;;;5031434;28;20041;-60
2023/12/14 00:16:32;;;;;;;9.00;7.28;;;;;10.10;97484.00;;;;5031762;28;20132;-61
2023/12/14 00:18:59;;;;;;;11.75;7.53;;;;;10.10;97491.00;;;;5031878;28;20054;-61
2023/12/14 00:21:25;;;;;;;9.75;7.32;;;;;10.10;97489.00;;;;5031687;28;20124;-60
2023/12/14 00:23:52;;;;;;;9.13;6.97;;;;;10.10;97487.00;;;;5031251;28;20041;-59
2023/12/14 00:26:19;;;;;;;9.13;7.53;;;;;10.10;97488.00;;;;5031925;28;20053;-59
2023/12/14 00:28:46;;;;;;;12.13;7.90;;;;;10.20;97494.00;;;;5031736;28;20128;-60
2023/12/14 00:31:12;;;;;;;11.15;8.43;;;;;10.20;97502.00;;;;5030462;28;20392;-60
2023/12/14 00:33:39;;;;;;;13.77;9.18;;;;;10.20;97503.00;;;;5031227;28;20051;-60
2023/12/14 00:36:06;;;;;;;12.93;8.75;;;;;10.20;97504.00;;;;5031462;28;20095;-61
2023/12/14 00:38:32;;;;;;;12.00;8.13;;;;;10.30;97504.00;;;;5035314;28;20052;-60
2023/12/14 00:40:59;;;;;;;12.38;7.68;;;;;10.20;97510.00;;;;5035655;28;20045;-60
2023/12/14 00:43:25;;;;;;;11.05;7.93;;;;;10.20;97512.00;;;;5017151;28;20045;-61
2023/12/14 00:45:52;;;;;;;8.15;6.68;;;;;10.20;97512.00;;;;5034092;28;20144;-62
2023/12/14 00:48:19;;;;;;;10.80;7.47;;;;;10.20;97520.00;;;;5035536;28;20048;-61
2023/12/14 00:50:45;;;;;;;11.50;7.63;;;;;10.20;97528.00;;;;5035326;28;20518;-63
2023/12/14 00:53:12;;;;;;;10.50;7.78;;;;;10.20;97533.00;;;;5035269;28;20044;-61
2023/12/14 00:55:39;;;;;;;12.45;8.18;;;;;10.20;97548.00;;;;5033644;28;20095;-61
2023/12/14 00:58:05;;;;;;;9.45;6.95;;;;;10.20;97544.00;;;;5034147;28;20399;-61
2023/12/14 01:00:32;;;;;;;13.75;7.82;;;;;10.10;97546.00;;;;5035517;28;20061;-63
2023/12/14 01:02:58;;;;;;;9.65;7.45;;;;;10.10;97553.00;;;;5035202;28;20505;-61
2023/12/14 01:05:25;;;;;;;10.50;7.57;;;;;10.10;97550.00;;;;5035071;28;20433;-60
2023/12/14 01:07:51;;;;;;;11.63;8.55;;;;;10.10;97554.00;;;;5017414;28;20095;-60
2023/12/14 01:10:18;;;;;;;10.98;8.05;;;;;10.10;97559.00;;;;5035040;28;20518;-62
2023/12/14 01:12:45;;;;;;;13.35;8.23;;;;;10.10;97557.00;;;;5034950;28;20041;-60
2023/12/14 01:15:11;;;;;;;10.63;8.18;;;;;10.10;97571.00;;;;5033067;28;20532;-59
2023/12/14 01:17:38;;;;;;;12.18;8.80;;;;;10.10;97568.00;;;;5033569;28;20077;-60
2023/12/14 01:20:08;;;;;;;16.38;10.05;;;;;10.20;97573.00;;;;5034707;28;20049;-61
2023/12/14 01:22:35;;;;;;;13.40;9.48;;;;;10.10;97576.00;;;;5034595;28;20518;-60
2023/12/14 01:25:02;;;;;;;15.55;10.20;;;;;10.10;97579.00;;;;5034169;28;20550;-60
2023/12/14 01:27:29;;;;;;;13.20;8.70;;;;;10.10;97581.00;;;;5034646;28;20050;-61
2023/12/14 01:29:55;;;;;;;15.30;8.80;;;;;10.10;97589.00;;;;5034710;28;20047;-59
2023/12/14 01:32:22;;;;;;;13.30;8.55;;;;;10.10;97585.00;;;;5034691;28;20063;-59
2023/12/14 01:34:48;;;;;;;14.65;8.63;;;;;10.10;97590.00;;;;5032607;28;20046;-60
2023/12/14 01:37:15;;;;;;;16.85;9.23;;;;;10.10;97594.00;;;;5033272;28;20553;-61
2023/12/14 01:39:42;;;;;;;15.80;8.55;;;;;10.10;97593.00;;;;5034425;28;20072;-59
2023/12/14 01:42:08;;;;;;;12.88;8.63;;;;;10.10;97599.00;;;;5034279;28;20088;-60
2023/12/14 01:44:35;;;;;;;11.30;8.52;;;;;10.00;97606.00;;;;5032553;28;20069;-60
2023/12/14 01:47:01;;;;;;;10.80;8.38;;;;;10.00;97608.00;;;;5033326;28;20045;-62
2023/12/14 01:49:28;;;;;;;11.20;7.53;;;;;10.10;97607.00;;;;5032918;28;20132;-60
2023/12/14 01:51:55;;;;;;;11.00;7.45;;;;;10.10;97611.00;;;;5034184;28;20073;-61
2023/12/14 01:54:21;;;;;;;12.63;7.38;;;;;10.10;97625.00;;;;5033588;28;20061;-60
2023/12/14 01:56:48;;;;;;;9.85;7.78;;;;;10.10;97624.00;;;;5033931;28;20490;-61
2023/12/14 01:59:14;;;;;;;11.27;7.55;;;;;10.20;97635.00;;;;5033961;28;20124;-61
2023/12/14 02:01:45;;;;;;;10.85;8.00;;;;;10.30;97637.00;;;;5033838;28;20042;-60
2023/12/14 02:04:14;;;;;;;11.70;8.13;;;;;10.30;97638.00;;;;5033345;28;20067;-62
2023/12/14 02:06:41;;;;;;;12.27;7.97;;;;;10.30;97642.00;;;;5032894;28;20441;-61
2023/12/14 02:09:08;;;;;;;11.68;8.38;;;;;10.20;97651.00;;;;5033715;28;20678;-61
2023/12/14 02:11:34;;;;;;;13.95;8.88;;;;;10.20;97657.00;;;;5033752;28;20056;-62
2023/12/14 02:14:12;;;;;;;12.32;8.75;;;;;10.20;97658.00;;;;5032021;28;20140;-60
2023/12/14 02:16:38;;;;;;;12.68;8.95;;;;;10.10;97658.00;;;;5033733;28;20075;-61
2023/12/14 02:19:05;;;;;;;10.38;8.52;;;;;10.10;97662.00;;;;5032380;28;20167;-61
2023/12/14 02:21:32;;;;;;;12.63;8.98;;;;;10.10;97668.00;;;;5033544;28;20088;-62
2023/12/14 02:23:59;;;;;;;14.93;9.30;;;;;10.10;97671.00;;;;5032797;28;20041;-61
2023/12/14 02:26:25;;;;;;;13.75;9.07;;;;;10.10;97678.00;;;;5033494;28;20056;-61
2023/12/14 02:28:52;;;;;;;11.55;9.10;;;;;10.00;97679.00;;;;5032343;28;20049;-61
2023/12/14 02:31:19;;;;;;;17.02;9.88;;;;;10.00;97672.00;;;;5033340;28;20049;-61
2023/12/14 02:33:46;;;;;;;15.32;9.95;;;;;10.00;97678.00;;;;5032695;28;20045;-61
2023/12/14 02:36:12;;;;;;;16.70;9.73;;;;;10.00;97672.00;;;;5032007;28;20045;-64
2023/12/14 02:38:39;;;;;;;13.57;9.85;;;;;10.00;97680.00;;;;5033334;28;20487;-61
2023/12/14 02:41:06;;;;;;;15.55;10.30;;;;;10.10;97680.00;;;;5033240;28;20409;-61
2023/12/14 02:43:33;;;;;;;14.93;10.60;;;;;10.10;97689.00;;;;5032557;28;20048;-61
2023/12/14 02:46:02;;;;;;;17.15;10.43;;;;;10.10;97681.00;;;;5033056;28;20552;-61
2023/12/14 02:48:32;;;;;;;17.02;9.27;;;;;10.00;97682.00;;;;5033092;28;20050;-61
2023/12/14 02:51:00;;;;;;;17.05;10.82;;;;;10.00;97694.00;;;;5032936;28;20050;-61
2023/12/14 02:53:26;;;;;;;13.63;10.25;;;;;10.00;97697.00;;;;5032532;28;20120;-61
2023/12/14 02:55:53;;;;;;;14.35;9.27;;;;;10.10;97710.00;;;;5031965;28;20084;-61
2023/12/14 02:58:20;;;;;;;15.30;9.85;;;;;10.10;97706.00;;;;5032912;28;20441;-61
2023/12/14 03:00:47;;;;;;;14.75;9.60;;;;;10.10;97711.00;;;;5032685;28;20057;-61
2023/12/14 03:03:13;;;;;;;14.93;9.90;;;;;10.00;97713.00;;;;5032554;28;20045;-63
2023/12/14 03:05:40;;;;;;;13.48;10.48;;;;;10.10;97719.00;;;;5031947;28;20045;-61
2023/12/14 03:08:06;;;;;;;16.35;9.85;;;;;10.00;97727.00;;;;5032630;28;20065;-61
2023/12/14 03:10:33;;;;;;;17.75;10.90;;;;;10.00;97729.00;;;;5032648;28;20048;-61
2023/12/14 03:13:00;;;;;;;16.25;10.95;;;;;10.00;97740.00;;;;5031573;28;20141;-62
2023/12/14 03:15:26;;;;;;;18.15;11.15;;;;;10.00;97743.00;;;;5031923;28;20033;-62
2023/12/14 03:17:53;;;;;;;16.95;11.70;;;;;9.90;97744.00;;;;5031109;28;20052;-61
2023/12/14 03:20:20;;;;;;;18.40;11.80;;;;;9.80;97742.00;;;;5032551;28;20091;-61
2023/12/14 03:22:47;;;;;;;16.50;11.30;;;;;9.90;97745.00;;;;5032336;28;20498;-61
2023/12/14 03:25:14;;;;;;;16.50;10.98;;;;;10.00;97755.00;;;;5031889;28;20091;-63
2023/12/14 03:27:40;;;;;;;14.63;11.07;;;;;10.00;97757.00;;;;5031383;28;20053;-62
2023/12/14 03:30:09;;;;;;;19.55;12.32;;;;;9.90;97756.00;;;;5031266;28;20395;-61
2023/12/14 03:32:37;;;;;;;19.75;11.57;;;;;9.90;97760.00;;;;5031158;28;20103;-61
2023/12/14 03:35:05;;;;;;;17.52;11.27;;;;;9.90;97765.00;;;;5032793;28;20121;-61
2023/12/14 03:37:32;;;;;;;16.95;12.02;;;;;10.00;97760.00;;;;5032200;28;20493;-61
2023/12/14 03:39:58;;;;;;;20.08;12.88;;;;;10.00;97774.00;;;;5032282;28;20043;-64
2023/12/14 03:42:25;;;;;;;20.90;12.68;;;;;10.00;97773.00;;;;5032442;28;20077;-61
2023/12/14 03:44:51;;;;;;;17.15;11.80;;;;;10.00;97773.00;;;;5031750;28;20045;-62
2023/12/14 03:47:18;;;;;;;18.27;12.50;;;;;10.00;97777.00;;;;5032513;28;20112;-61
2023/12/14 03:49:44;;;;;;;19.30;12.30;;;;;10.00;97778.00;;;;5032534;28;20063;-61
2023/12/14 03:52:11;;;;;;;22.02;13.57;;;;;10.00;97787.00;;;;5032151;28;20038;-61
2023/12/14 03:54:37;;;;;;;23.80;14.13;;;;;10.00;97795.00;;;;5031386;28;20494;-61
2023/12/14 03:57:04;;;;;;;19.92;13.02;;;;;10.00;97795.00;;;;5031879;28;20045;-61
2023/12/14 03:59:32;;;;;;;19.33;13.20;;;;;10.00;97796.00;;;;5032007;28;20080;-61
2023/12/14 04:01:59;;;;;;;18.90;13.20;;;;;10.00;97805.00;;;;5032095;28;20414;-60
2023/12/14 04:04:26;;;;;;;19.00;12.27;;;;;10.00;97812.00;;;;5031139;28;20071;-61
2023/12/14 04:06:52;;;;;;;16.90;11.80;;;;;10.00;97812.00;;;;5031926;28;20407;-60
2023/12/14 04:09:19;;;;;;;24.45;13.82;;;;;10.00;97817.00;;;;5032038;28;20045;-61
2023/12/14 04:11:45;;;;;;;22.27;12.55;;;;;10.00;97815.00;;;;5031222;28;20081;-61
2023/12/14 04:14:12;;;;;;;22.88;13.00;;;;;10.00;97826.00;;;;5035338;28;20059;-61
2023/12/14 04:16:39;;;;;;;19.25;12.07;;;;;10.00;97830.00;;;;5035805;28;20045;-61
2023/12/14 04:19:09;;;;;;;22.05;12.50;;;;;9.90;97832.00;;;;5036169;28;20049;-63
2023/12/14 04:21:36;;;;;;;20.85;12.75;;;;;9.80;97834.00;;;;5035865;28;20049;-61
2023/12/14 04:24:03;;;;;;;21.27;13.25;;;;;9.80;97841.00;;;;5035101;28;20045;-61
2023/12/14 04:26:30;;;;;;;21.90;13.10;;;;;9.80;97846.00;;;;5035682;28;20051;-62
2023/12/14 04:28:56;;;;;;;26.27;14.35;;;;;9.80;97848.00;;;;5035721;28;20079;-61
2023/12/14 04:31:23;;;;;;;21.20;14.00;;;;;9.70;97853.00;;;;5035692;28;20499;-61
2023/12/14 04:33:50;;;;;;;26.75;14.90;;;;;9.80;97844.00;;;;5035207;28;20433;-64
2023/12/14 04:36:16;;;;;;;24.45;14.95;;;;;9.70;97858.00;;;;5035533;28;20053;-62
2023/12/14 04:38:45;;;;;;;23.95;14.85;;;;;9.80;97860.00;;;;5035503;28;20487;-61
2023/12/14 04:41:12;;;;;;;26.15;14.68;;;;;9.80;97851.00;;;;5035459;28;20079;-63
2023/12/14 04:43:39;;;;;;;20.10;12.70;;;;;9.80;97852.00;;;;5034902;28;20049;-61
2023/12/14 04:46:06;;;;;;;23.55;13.00;;;;;9.80;97857.00;;;;5033997;28;20499;-60
2023/12/14 04:48:32;;;;;;;26.73;15.05;;;;;9.80;97861.00;;;;5035436;28;20487;-62
2023/12/14 04:50:59;;;;;;;26.58;16.38;;;;;9.70;97867.00;;;;5035377;28;20060;-60
2023/12/14 04:53:26;;;;;;;22.52;16.05;;;;;9.70;97873.00;;;;5034687;28;20041;-61
2023/12/14 04:55:52;;;;;;;26.10;17.42;;;;;9.60;97875.00;;;;5035090;28;20100;-62
2023/12/14 04:58:19;;;;;;;25.42;16.25;;;;;9.60;97880.00;;;;5035282;28;20042;-61
2023/12/14 05:00:45;;;;;;;23.80;14.88;;;;;9.60;97886.00;;;;5035032;28;20510;-61
2023/12/14 05:03:12;;;;;;;21.23;14.15;;;;;9.50;97892.00;;;;5035102;28;20084;-61
2023/12/14 05:05:39;;;;;;;22.17;14.23;;;;;9.40;97894.00;;;;5034426;28;20048;-61
2023/12/14 05:08:05;;;;;;;21.00;14.05;;;;;9.40;97890.00;;;;5034988;28;20429;-61
2023/12/14 05:10:32;;;;;;;21.85;13.30;;;;;9.50;97912.00;;;;5034990;28;20123;-61
2023/12/14 05:13:02;;;;;;;25.00;13.95;;;;;9.60;97909.00;;;;5035072;28;20132;-61
2023/12/14 05:15:28;;;;;;;23.25;12.93;;;;;9.60;97907.00;;;;5034325;28;20079;-60
2023/12/14 05:17:55;;;;;;;23.75;13.75;;;;;9.60;97912.00;;;;5033536;28;20053;-64
2023/12/14 05:20:21;;;;;;;23.67;14.27;;;;;9.60;97917.00;;;;5034897;28;20050;-62
2023/12/14 05:22:48;;;;;;;23.05;14.15;;;;;9.60;97914.00;;;;5034417;28;20065;-60
2023/12/14 05:25:15;;;;;;;24.15;14.45;;;;;9.60;97920.00;;;;5033983;28;20474;-61
2023/12/14 05:27:42;;;;;;;20.73;14.23;;;;;9.50;97931.00;;;;5034720;28;20494;-63
2023/12/14 05:30:09;;;;;;;25.23;14.07;;;;;9.50;97927.00;;;;5034788;28;20067;-62
2023/12/14 05:32:35;;;;;;;23.25;14.48;;;;;9.60;97936.00;;;;5034634;28;20111;-61
2023/12/14 05:35:03;;;;;;;22.55;14.70;;;;;9.60;97938.00;;;;5033957;28;20569;-63
2023/12/14 05:37:29;;;;;;;24.55;14.07;;;;;9.70;97949.00;;;;5033316;28;20060;-64
2023/12/14 05:39:56;;;;;;;24.50;14.30;;;;;9.60;97959.00;;;;5034522;28;20049;-63
2023/12/14 05:42:22;;;;;;;22.83;13.55;;;;;9.60;97956.00;;;;5034367;28;20498;-61
2023/12/14 05:44:49;;;;;;;25.13;14.77;;;;;9.70;97965.00;;;;5033923;28;20048;-60
2023/12/14 05:47:15;;;;;;;28.10;14.45;;;;;9.70;97956.00;;;;5034684;28;20124;-61
2023/12/14 05:49:43;;;;;;;21.38;13.95;;;;;9.70;97971.00;;;;5035299;28;20053;-62
2023/12/14 05:52:11;;;;;;;24.73;13.85;;;;;9.80;97974.00;;;;5035102;28;20048;-61
2023/12/14 05:54:39;;;;;;;23.70;14.55;;;;;9.80;97982.00;;;;5033162;28;20042;-59
2023/12/14 05:57:06;;;;;;;25.67;15.77;;;;;9.80;97976.00;;;;5033624;28;20045;-59
2023/12/14 05:59:32;;;;;;;23.80;15.00;;;;;9.80;97986.00;;;;5034866;28;20065;-63
2023/12/14 06:02:00;;;;;;;21.85;14.52;;;;;9.80;97988.00;;;;5033108;28;20132;-64
2023/12/14 06:04:27;;;;;;;21.75;15.10;;;;;9.80;97998.00;;;;5033671;28;20052;-64
2023/12/14 06:06:53;;;;;;;23.50;14.50;;;;;9.80;97999.00;;;;5033630;28;20516;-64
2023/12/14 06:09:24;;;;;;;26.73;14.93;;;;;9.70;98005.00;;;;5034319;28;20506;-64
2023/12/14 06:11:51;;;;;;;25.00;15.35;;;;;9.70;98017.00;;;;5033178;28;20582;-64
2023/12/14 06:14:18;;;;;;;26.40;15.23;;;;;9.70;98015.00;;;;5033264;28;20080;-64
2023/12/14 06:16:45;;;;;;;19.83;13.93;;;;;9.70;98025.00;;;;5034083;28;20060;-63
2023/12/14 06:19:12;;;;;;;22.85;14.15;;;;;9.70;98042.00;;;;5034064;28;20069;-64
2023/12/14 06:21:40;;;;;;;22.00;14.68;;;;;9.70;98044.00;;;;5033999;28;20491;-63
2023/12/14 06:24:06;;;;;;;28.55;16.08;;;;;9.70;98033.00;;;;5033372;28;20406;-64
2023/12/14 06:26:33;;;;;;;23.45;14.05;;;;;9.60;98049.00;;;;5032434;28;20540;-62
2023/12/14 06:28:59;;;;;;;24.15;14.85;;;;;9.60;98054.00;;;;5032163;28;20060;-64
2023/12/14 06:31:26;;;;;;;23.85;14.50;;;;;9.50;98058.00;;;;5032189;28;20049;-64
2023/12/14 06:33:52;;;;;;;24.35;14.93;;;;;9.50;98068.00;;;;5032460;28;20128;-64
2023/12/14 06:36:26;;;;;;;23.88;14.50;;;;;9.50;98063.00;;;;5032769;28;20128;-64
2023/12/14 06:38:53;;;;;;;23.30;14.60;;;;;9.50;98069.00;;;;5033188;28;20433;-65
2023/12/14 06:41:23;;;;;;;25.13;15.27;;;;;9.50;98075.00;;;;5033323;28;20046;-63
2023/12/14 06:43:50;;;;;;;25.05;15.63;;;;;9.50;98074.00;;;;5032477;28;20535;-64
2023/12/14 06:46:16;;;;;;;25.27;14.90;;;;;9.50;98079.00;;;;5033096;28;20128;-64
2023/12/14 06:48:43;;;;;;;23.80;15.27;;;;;9.50;98075.00;;;;5033114;28;20107;-64
2023/12/14 06:51:10;;;;;;;25.08;14.75;;;;;9.60;98085.00;;;;5033564;28;20064;-64
2023/12/14 06:53:40;;;;;;;24.38;15.45;;;;;9.50;98087.00;;;;5033261;28;20052;-63
2023/12/14 06:56:10;;;;;;;27.48;16.02;;;;;9.50;98088.00;;;;5034415;28;20490;-64
2023/12/14 06:58:41;;;;;;;24.00;15.57;;;;;9.60;98093.00;;;;5034230;28;20045;-63
2023/12/14 07:01:12;;;;;;;30.30;16.02;;;;;9.50;98095.00;;;;5034450;28;20041;-64
2023/12/14 07:03:44;;;;;;;25.20;15.70;;;;;9.50;98110.00;;;;5032292;28;20057;-63
2023/12/14 07:06:15;;;;;;;25.38;16.55;;;;;9.50;98110.00;;;;5033935;28;20071;-63
2023/12/14 07:08:42;;;;;;;26.10;16.52;;;;;9.50;98115.00;;;;5033639;28;20124;-64
2023/12/14 07:11:10;;;;;;;29.60;16.30;;;;;9.60;98112.00;;;;5032306;28;20077;-64
2023/12/14 07:13:37;;;;;;;28.33;17.85;;;;;9.60;98131.00;;;;5033184;28;20045;-63
2023/12/14 07:16:09;;;;;;;24.23;15.82;;;;;9.60;98127.00;;;;5033110;28;20041;-64
2023/12/14 07:18:40;;;;;;;23.35;15.45;;;;;9.70;98135.00;;;;5034227;28;20056;-64
2023/12/14 07:21:08;;;;;;;25.30;14.60;;;;;9.70;98140.00;;;;5034656;28;20057;-64
2023/12/14 07:23:35;;;;;;;22.13;15.23;;;;;9.70;98144.00;;;;5031518;28;20072;-63
2023/12/14 07:26:03;;;;;;;27.35;16.25;;;;;9.70;98148.00;;;;5033423;28;20041;-64
2023/12/14 07:28:33;;;;;;;23.02;15.10;;;;;9.60;98151.00;;;;5033749;28;20533;-63
2023/12/14 07:31:00;;;;;;;24.23;15.48;;;;;9.60;98157.00;;;;5034096;28;20486;-64
2023/12/14 07:33:26;;;;;;;24.38;14.73;;;;;9.60;98163.00;;;;5032497;28;20084;-65
2023/12/14 07:35:53;;;;;;;22.50;14.32;;;;;9.60;98166.00;;;;5032012;28;20389;-63
2023/12/14 07:38:20;;;;;;;22.25;13.43;;;;;9.60;98169.00;;;;5032564;28;20047;-63
2023/12/14 07:40:46;;;;;;;25.52;14.57;;;;;9.60;98172.00;;;;5032714;28;20048;-65
2023/12/14 07:43:13;;;;;;;23.35;14.48;;;;;9.60;98181.00;;;;5032525;28;20049;-61
2023/12/14 07:45:40;;;;;;;28.27;15.48;;;;;9.60;98178.00;;;;5031600;28;20076;-63
2023/12/14 07:48:06;;;;;;;23.25;15.80;;;;;9.60;98192.00;;;;5032223;28;20564;-63
2023/12/14 07:50:33;;;;;;;25.55;17.05;;;;;9.60;98193.00;;;;5032295;28;20056;-64
2023/12/14 07:53:00;;;;;;;26.35;16.25;;;;;9.60;98192.00;;;;5032012;28;20045;-62
2023/12/14 07:55:26;;;;;;;30.63;16.08;;;;;9.60;98196.00;;;;5031453;28;20179;-63
2023/12/14 07:57:53;;;;;;;26.10;16.15;;;;;9.70;98212.00;;;;5031912;28;20052;-63
2023/12/14 08:00:19;;;;;;;23.65;15.07;;;;;9.60;98214.00;;;;5032097;28;20415;-63
2023/12/14 08:02:46;;;;;;;21.63;14.32;;;;;9.60;98225.00;;;;5014294;28;20517;-64
2023/12/14 08:05:13;;;;;;;21.75;14.52;;;;;9.60;98226.00;;;;5031045;28;20041;-63
2023/12/14 08:07:39;;;;;;;23.00;13.73;;;;;9.60;98232.00;;;;5031774;28;20048;-63
2023/12/14 08:10:07;;;;;;;24.48;14.23;;;;;9.60;98239.00;;;;5030556;28;20056;-62
2023/12/14 08:12:34;;;;;;;26.35;16.90;;;;;9.60;98246.00;;;;5031733;28;20041;-62
2023/12/14 08:15:01;;;;;;;22.33;14.60;;;;;9.60;98252.00;;;;5030055;28;20049;-63
2023/12/14 08:17:28;;;;;;;24.73;14.38;;;;;9.70;98260.00;;;;5030630;28;20575;-64
2023/12/14 08:19:54;;;;;;;23.95;14.10;;;;;9.60;98264.00;;;;5031666;28;20124;-63
2023/12/14 08:22:21;;;;;;;20.83;14.07;;;;;9.60;98261.00;;;;5031619;28;20045;-63
2023/12/14 08:24:48;;;;;;;25.15;14.88;;;;;9.60;98262.00;;;;5031060;28;20526;-61
2023/12/14 08:27:15;;;;;;;26.58;14.90;;;;;9.70;98270.00;;;;5031603;28;20047;-63
2023/12/14 08:29:41;;;;;;;28.65;15.13;;;;;9.70;98270.00;;;;5030578;28;20144;-63
2023/12/14 08:32:08;;;;;;;25.02;14.32;;;;;9.80;98275.00;;;;5031699;28;20133;-63
2023/12/14 08:34:34;;;;;;;23.73;13.43;;;;;9.80;98285.00;;;;5030956;28;20049;-64
2023/12/14 08:37:02;;;;;;;19.80;13.18;;;;;9.80;98294.00;;;;5030319;28;20112;-63
2023/12/14 08:39:29;;;;;;;21.58;13.20;;;;;9.80;98298.00;;;;5031621;28;20561;-63
2023/12/14 08:41:55;;;;;;;21.75;13.50;;;;;9.80;98306.00;;;;5031672;28;20483;-64
2023/12/14 08:44:22;;;;;;;22.17;13.70;;;;;9.80;98306.00;;;;5031040;28;20103;-64
2023/12/14 08:46:49;;;;;;;22.73;13.18;;;;;9.80;98321.00;;;;5030422;28;20711;-64
2023/12/14 08:49:16;;;;;;;22.77;13.52;;;;;9.80;98332.00;;;;5031498;28;20125;-63
2023/12/14 08:51:43;;;;;;;21.63;13.90;;;;;9.80;98322.00;;;;5031575;28;20037;-64
2023/12/14 08:54:09;;;;;;;27.02;13.07;;;;;9.80;98331.00;;;;5030850;28;20049;-62
2023/12/14 08:56:36;;;;;;;21.95;13.27;;;;;9.70;98336.00;;;;5031361;28;20447;-64
2023/12/14 08:59:03;;;;;;;22.83;13.27;;;;;9.70;98344.00;;;;5034046;28;20073;-64
2023/12/14 09:01:30;;;;;;;26.90;13.95;;;;;9.70;98339.00;;;;5035112;28;20144;-64
2023/12/14 09:03:57;;;;;;;23.90;15.88;;;;;9.70;98340.00;;;;5034652;28;20560;-64
2023/12/14 09:06:24;;;;;;;19.60;12.93;;;;;9.70;98353.00;;;;5035084;28;20103;-64
2023/12/14 09:08:51;;;;;;;15.75;11.27;;;;;9.70;98361.00;;;;5035081;28;20038;-64
2023/12/14 09:11:17;;;;;;;22.40;12.20;;;;;9.60;98361.00;;;;5035095;28;20041;-64
2023/12/14 09:13:44;;;;;;;18.33;11.40;;;;;9.70;98371.00;;;;5034439;28;20045;-63
2023/12/14 09:16:12;;;;;;;15.75;11.30;;;;;9.70;98380.00;;;;5034840;28;20037;-64
2023/12/14 09:18:38;;;;;;;20.48;12.00;;;;;9.70;98382.00;;;;5035043;28;20076;-63
2023/12/14 09:21:05;;;;;;;18.88;10.55;;;;;9.80;98386.00;;;;5034847;28;20041;-64
2023/12/14 09:23:32;;;;;;;21.77;12.20;;;;;9.80;98390.00;;;;5034170;28;20076;-64
2023/12/14 09:25:59;;;;;;;17.33;11.05;;;;;9.90;98392.00;;;;5033648;28;20041;-62
2023/12/14 09:28:26;;;;;;;20.90;12.00;;;;;9.90;98394.00;;;;5034820;28;20053;-64
2023/12/14 09:30:53;;;;;;;19.55;11.63;;;;;9.90;98400.00;;;;5033463;28;20144;-62
2023/12/14 09:33:20;;;;;;;20.27;12.23;;;;;10.00;98404.00;;;;5034504;28;20091;-62
2023/12/14 09:35:46;;;;;;;21.48;11.02;;;;;10.00;98410.00;;;;5033056;28;20045;-63
2023/12/14 09:38:16;;;;;;;17.13;10.80;;;;;10.00;98417.00;;;;5033509;28;20148;-62
2023/12/14 09:40:44;;;;;;;18.55;10.73;;;;;10.00;98421.00;;;;5037170;28;20045;-62
2023/12/14 09:43:12;;;;;;;14.43;9.73;;;;;10.10;98420.00;;;;5033333;28;20099;-64
2023/12/14 09:45:43;;;;;;;18.27;9.70;;;;;10.00;98432.00;;;;5032564;28;20119;-59
2023/12/14 09:48:11;;;;;;;17.50;11.05;;;;;10.00;98432.00;;;;5034660;28;20060;-61
2023/12/14 09:50:39;;;;;;;17.50;12.88;;;;;10.10;98442.00;;;;5034401;28;20079;-60
2023/12/14 09:53:07;;;;;;;15.48;11.40;;;;;10.10;98440.00;;;;5034127;28;20080;-60
2023/12/14 09:55:34;;;;;;;19.10;11.45;;;;;10.20;98443.00;;;;5033660;28;20037;-60
2023/12/14 09:58:02;;;;;;;17.13;10.93;;;;;10.20;98451.00;;;;5034159;28;20615;-59
2023/12/14 10:00:36;;;;;;;22.85;14.75;;;;;10.20;98461.00;;;;5034101;28;20099;-63
2023/12/14 10:03:26;;;;;;;12.75;9.30;;;;;10.30;98455.00;;;;5034127;28;20119;-61
2023/12/14 10:05:54;;;;;;;15.90;9.68;;;;;10.10;98463.00;;;;5032828;28;20038;-60
2023/12/14 10:08:22;;;;;;;15.40;10.38;;;;;10.10;98459.00;;;;5034099;28;20045;-60
2023/12/14 10:10:55;;;;;;;14.20;8.93;;;;;10.10;98457.00;;;;5033036;28;20065;-64
2023/12/14 10:13:37;;;;;;;14.98;9.32;;;;;10.10;98461.00;;;;5033940;28;20124;-64
2023/12/14 10:16:04;;;;;;;14.25;9.45;;;;;10.20;98470.00;;;;5016587;28;20056;-64
2023/12/14 10:18:34;;;;;;;16.85;10.65;;;;;10.30;98472.00;;;;5034140;28;20056;-64
2023/12/14 10:21:01;;;;;;;16.38;10.30;;;;;10.30;98472.00;;;;5033648;28;20084;-64
2023/12/14 10:23:28;;;;;;;15.65;10.20;;;;;10.30;98481.00;;;;5033013;28;20055;-62
2023/12/14 10:25:55;;;;;;;15.18;9.70;;;;;10.20;98477.00;;;;5033627;28;20107;-61
2023/12/14 10:28:22;;;;;;;16.77;9.90;;;;;10.20;98477.00;;;;5032708;28;20046;-64
2023/12/14 10:30:48;;;;;;;16.25;11.68;;;;;10.10;98482.00;;;;5033783;28;20099;-63
2023/12/14 10:33:16;;;;;;;14.98;11.35;;;;;10.10;98477.00;;;;5033599;28;20041;-64
2023/12/14 10:35:45;;;;;;;12.90;9.85;;;;;10.10;98494.00;;;;5032939;28;20044;-63
2023/12/14 10:38:15;;;;;;;15.73;9.60;;;;;10.10;98488.00;;;;5033507;28;20141;-61
2023/12/14 10:40:43;;;;;;;15.23;10.48;;;;;10.10;98493.00;;;;5033370;28;20128;-62
2023/12/14 10:43:11;;;;;;;12.85;9.07;;;;;10.10;98495.00;;;;5033405;28;20076;-61
2023/12/14 10:45:44;;;;;;;16.13;9.80;;;;;10.20;98503.00;;;;5032490;28;20446;-61
2023/12/14 10:48:13;;;;;;;14.82;9.93;;;;;10.20;98491.00;;;;5033235;28;20050;-62
2023/12/14 10:50:42;;;;;;;16.70;10.15;;;;;10.40;98494.00;;;;5033181;28;20128;-61
2023/12/14 10:53:09;;;;;;;12.77;8.63;;;;;10.50;98500.00;;;;5033215;28;20483;-63
2023/12/14 10:55:47;;;;;;;14.52;9.30;;;;;10.60;98502.00;;;;5032549;28;20048;-64
2023/12/14 10:58:14;;;;;;;13.05;8.57;;;;;10.60;98506.00;;;;5033073;28;20136;-64
2023/12/14 11:00:42;;;;;;;11.55;7.95;;;;;10.60;98512.00;;;;5033024;28;20407;-64
2023/12/14 11:03:13;;;;;;;12.23;8.93;;;;;10.70;98516.00;;;;5031569;28;20124;-64
2023/12/14 11:05:39;;;;;;;12.05;8.35;;;;;10.90;98528.00;;;;5032265;28;20095;-64
2023/12/14 11:08:11;;;;;;;12.05;8.35;;;;;10.90;98525.00;;;;5032806;28;20049;-64
2023/12/14 11:10:45;;;;;;;13.05;8.25;;;;;11.00;98530.00;;;;5031712;28;20046;-64
2023/12/14 11:13:13;;;;;;;;;;;;;11.00;98536.00;;;;5033327;28;20049;-64
2023/12/14 11:15:49;;;;;;;9.77;6.85;;;;;10.90;98535.00;;;;5032005;28;19967;-64
2023/12/14 11:18:21;;;;;;;12.10;7.95;;;;;11.00;98546.00;;;;5032736;28;20079;-64
2023/12/14 11:20:56;;;;;;;10.98;7.07;;;;;10.90;98548.00;;;;5032338;28;20045;-64
2023/12/14 11:23:23;;;;;;;11.73;6.88;;;;;10.90;98552.00;;;;5030839;28;20552;-60
2023/12/14 11:25:52;;;;;;;10.95;6.32;;;;;10.90;98552.00;;;;5032407;28;20060;-64
2023/12/14 11:28:25;;;;;;;9.70;6.57;;;;;11.00;98553.00;;;;5032512;28;20046;-64
2023/12/14 11:30:54;;;;;;;9.18;6.53;;;;;11.00;98562.00;;;;5032416;28;20041;-64
2023/12/14 11:33:23;;;;;;;10.23;6.57;;;;;11.00;98563.00;;;;5032200;28;20111;-64
2023/12/14 11:35:52;;;;;;;10.40;5.80;;;;;10.90;98563.00;;;;5032188;28;20703;-64
2023/12/14 11:38:20;;;;;;;7.90;5.35;;;;;11.00;98564.00;;;;5032261;28;20056;-64
2023/12/14 11:40:50;;;;;;;8.68;4.93;;;;;11.00;98566.00;;;;5031000;28;20088;-64
2023/12/14 11:43:20;;;;;;;8.60;5.20;;;;;11.10;98563.00;;;;5032383;28;20052;-61
2023/12/14 11:45:47;;;;;;;6.97;4.82;;;;;11.20;98569.00;;;;5031752;28;20046;-62
2023/12/14 11:48:14;;;;;;;8.30;4.88;;;;;11.20;98565.00;;;;5032049;28;20038;-61
2023/12/14 11:50:42;;;;;;;7.88;4.95;;;;;11.20;98569.00;;;;5030952;28;20111;-61
2023/12/14 11:53:10;;;;;;;6.55;4.57;;;;;11.20;98570.00;;;;5032049;28;20052;-64
2023/12/14 11:55:39;;;;;;;8.93;5.30;;;;;11.30;98576.00;;;;5030306;28;20124;-64
2023/12/14 11:58:07;;;;;;;6.63;4.88;;;;;11.60;98574.00;;;;5032074;28;20513;-64
2023/12/14 12:00:39;;;;;;;5.30;4.20;;;;;11.80;98577.00;;;;5032174;28;20077;-64
2023/12/14 12:03:19;;;;;;;6.50;4.72;;;;;11.90;98581.00;;;;5030729;28;20049;-64
2023/12/14 12:05:51;;;;;;;6.70;4.28;;;;;11.90;98582.00;;;;5031359;28;20060;-64
2023/12/14 12:08:20;;;;;;;6.22;4.40;;;;;11.60;98582.00;;;;5031850;28;20099;-64
2023/12/14 12:10:48;;;;;;;5.55;4.15;;;;;11.40;98577.00;;;;5031898;28;20391;-64